KRZT

Details ICAO KRZT
Name ROSS CO
Region United States
Timezone America/New_York (UTC-5.0)
Plans Departing 0
Arriving 0
Stats Elevation 725 ft / 221 m (AMSL)
Location 39.441628° -83.022385°
Runways 2
Magnetic Variation 6.999° W
Sunrise 2017-12-16 12:47:20 UTC / 2017-12-16 07:47:20 Local
Sunset 2017-12-16 22:11:05 UTC / 2017-12-16 17:11:05 Local
Advertisement - Login to hide

Runways

ID Width Length Bearing (true) Bearing (mag) Surface Threshold Offset Overrun Length
05 100 ft / 30 m 5,404 ft / 1,647 m 42.31° 49.31° Asphalt 0 ft / 0 m 555 ft / 169 m
12 125 ft / 38 m 3,142 ft / 958 m 112.78° 119.78° Grass 330 ft / 101 m 0 ft / 0 m
23 100 ft / 30 m 5,404 ft / 1,647 m 222.32° 229.32° Asphalt 0 ft / 0 m 0 ft / 0 m
30 125 ft / 38 m 3,142 ft / 958 m 292.79° 299.79° Grass 0 ft / 0 m 0 ft / 0 m

Map

Weather


0- 5 10 15 20 25 30 35+ Temperature / ° C

Clouds and Precipitation
Forecast for 2017-12-17 00:00 UTC. Updated an hour ago

Ground ~20,000 ft ~40,000 ft Winds

METAR

KRZT 170035Z AUTO 20004KT 10SM CLR 05/M03 A3009 RMK AO2

TAF

Not found

Frequencies

Recorded 119.22 MHz AWOS 3
Approach 132.30 MHz COLUMBUS APP/DEP
Unicom 122.80 MHz CTAF/UNICOM
Warning: Do not use this data for real-world aviation or navigation. No guarantee of current accuracy is given.